Time;durP1;ratioP1;P1;durP2;ratioP2;P2;SDS_P1;SDS_P2;PMS_P1;PMS_P2;Temp;Humidity;BMP_temperature;BMP_pressure;BME280_temperature;BME280_humidity;BME280_pressure;Samples;Min_cycle;Max_cycle;Signal;HPM_P1;HPM_P2
2022/06/02 00:02:29;;;;;;;;;4.00;2.00;;;;;18.13;38.67;101298.00;5124700;27;45459;-74
2022/06/02 00:05:09;;;;;;;;;4.00;3.00;;;;;18.09;38.86;101301.59;5125908;27;45197;-72
2022/06/02 00:07:57;;;;;;;;;1.33;1.33;;;;;18.05;39.22;101292.56;5126825;27;45201;-74
2022/06/02 00:10:41;;;;;;;;;1.00;1.00;;;;;18.07;38.90;101305.19;5122518;27;45318;-75
2022/06/02 00:13:23;;;;;;;;;2.33;2.33;;;;;18.06;39.20;101301.56;5121604;27;45201;-74
2022/06/02 00:16:03;;;;;;;;;3.33;2.00;;;;;17.61;39.26;101235.56;5120341;27;46053;-74
2022/06/02 00:18:36;;;;;;;;;2.00;0.67;;;;;17.90;39.30;101283.47;5121048;27;45204;-73
2022/06/02 00:21:30;;;;;;;;;2.00;2.00;;;;;17.96;39.16;101300.63;5124187;27;45660;-72
2022/06/02 00:24:14;;;;;;;;;3.00;3.00;;;;;17.92;39.57;101297.88;5124619;27;45082;-73
2022/06/02 00:27:04;;;;;;;;;1.00;1.00;;;;;17.88;39.86;101304.19;5125880;27;46345;-71
2022/06/02 00:30:03;;;;;;;;;1.00;1.00;;;;;17.84;39.74;101314.06;5126441;27;45059;-74
2022/06/02 00:32:43;;;;;;;;;2.00;2.00;;;;;17.52;39.88;101259.81;5111863;27;45297;-73
2022/06/02 00:35:23;;;;;;;;;3.33;2.67;;;;;17.80;40.05;101325.72;5099827;27;45817;-73
2022/06/02 00:38:14;;;;;;;;;4.00;3.00;;;;;17.57;39.77;101288.69;5111304;27;45463;-74
2022/06/02 00:40:39;;;;;;;;;1.33;1.33;;;;;17.67;40.53;101316.66;5109724;27;45683;-74
2022/06/02 00:43:15;;;;;;;;;3.00;1.00;;;;;17.60;40.27;101317.50;5123232;27;47321;-73
2022/06/02 00:45:42;;;;;;;;;2.00;2.00;;;;;17.31;40.30;101275.91;5125596;27;45174;-74
2022/06/02 00:48:15;;;;;;;;;3.33;2.00;;;;;17.56;40.91;101313.88;5127357;27;46309;-74
2022/06/02 00:51:03;;;;;;;;;1.00;1.00;;;;;17.42;40.34;101288.56;5116676;27;45827;-74
2022/06/02 00:53:31;;;;;;;;;1.00;1.00;;;;;17.54;40.42;101309.34;5109162;27;45634;-73
2022/06/02 00:59:35;;;;;;;;;3.00;3.00;;;;;17.50;41.21;101311.13;5113427;27;45803;-74
2022/06/02 01:02:01;;;;;;;;;2.33;2.00;;;;;17.43;40.62;101306.59;5121758;27;45555;-74
2022/06/02 01:04:26;;;;;;;;;1.00;1.00;;;;;17.49;40.89;101328.25;5118687;27;45781;-73
2022/06/02 01:07:02;;;;;;;;;19.25;16.25;;;;;17.44;41.12;101319.19;5125904;27;45637;-72
2022/06/02 01:09:30;;;;;;;;;2.33;1.67;;;;;17.41;41.28;101308.38;5122711;27;46319;-72
2022/06/02 01:12:01;;;;;;;;;1.33;1.33;;;;;17.38;40.81;101306.56;5118517;27;45371;-73
2022/06/02 01:14:57;;;;;;;;;3.67;2.00;;;;;17.38;41.47;101308.34;5111232;27;45487;-74
2022/06/02 01:17:48;;;;;;;;;2.00;2.00;;;;;17.33;41.83;101318.22;5125102;27;45237;-74
2022/06/02 01:20:39;;;;;;;;;2.67;2.67;;;;;17.30;41.42;101316.38;5111941;27;45556;-72
2022/06/02 01:23:16;;;;;;;;;4.00;2.67;;;;;17.33;41.59;101305.63;5105266;27;45759;-73
2022/06/02 01:26:23;;;;;;;;;5.00;2.67;;;;;17.29;41.85;101302.00;5113416;27;45435;-74
2022/06/02 01:28:59;;;;;;;;;9.00;5.00;;;;;16.82;41.58;101226.88;5105101;27;45476;-74
2022/06/02 01:31:30;;;;;;;;;4.00;2.00;;;;;17.24;41.05;101303.75;5107664;27;45457;-73
2022/06/02 01:34:03;;;;;;;;;3.00;2.00;;;;;17.19;41.79;101312.69;5117117;27;45460;-74
2022/06/02 01:36:46;;;;;;;;;5.00;3.67;;;;;17.01;42.12;101278.34;5110101;27;45439;-74
2022/06/02 01:39:26;;;;;;;;;6.00;2.67;;;;;17.17;42.27;101306.38;5116154;27;45896;-75
2022/06/02 01:42:28;;;;;;;;;3.00;2.00;;;;;16.79;42.57;101256.53;5117805;27;45418;-75
2022/06/02 01:45:22;;;;;;;;;3.75;2.50;;;;;17.08;42.61;101302.72;5116742;27;45323;-74
2022/06/02 01:48:10;;;;;;;;;3.00;3.00;;;;;17.10;42.53;101305.44;5123327;27;45542;-74
2022/06/02 01:50:57;;;;;;;;;6.50;4.00;;;;;17.07;42.68;101310.81;5126775;27;45027;-74
2022/06/02 01:53:38;;;;;;;;;2.33;2.33;;;;;17.04;42.15;101316.16;5126414;27;45857;-75
2022/06/02 01:56:03;;;;;;;;;4.25;4.25;;;;;17.11;42.56;101327.06;5127247;27;45039;-73
2022/06/02 01:58:47;;;;;;;;;4.67;2.00;;;;;17.09;42.17;101318.03;5127339;27;45319;-75
2022/06/02 02:01:33;;;;;;;;;5.50;3.75;;;;;16.90;42.53;101311.56;5127087;27;45259;-75
2022/06/02 02:04:17;;;;;;;;;6.33;3.00;;;;;17.03;42.75;101327.88;5114615;27;45449;-73
2022/06/02 02:06:52;;;;;;;;;4.00;4.00;;;;;17.04;42.92;101337.78;5107317;27;45503;-74
2022/06/02 02:10:03;;;;;;;;;3.00;3.00;;;;;16.91;42.53;101316.06;5109933;27;45550;-75
2022/06/02 02:12:50;;;;;;;;;4.00;4.00;;;;;17.03;42.84;101326.06;5109554;27;45715;-73
2022/06/02 02:15:18;;;;;;;;;4.33;4.00;;;;;17.01;42.87;101314.38;5113938;27;46022;-72
2022/06/02 02:18:01;;;;;;;;;4.00;4.00;;;;;16.98;42.80;101319.72;5112518;27;45558;-74
2022/06/02 02:21:00;;;;;;;;;3.25;3.25;;;;;16.98;42.77;101318.81;5110910;27;45796;-73
2022/06/02 02:23:50;;;;;;;;;4.67;3.00;;;;;16.85;43.25;101323.22;5121461;27;45490;-73
2022/06/02 02:26:28;;;;;;;;;3.67;2.33;;;;;16.89;43.04;101320.53;5115519;27;45834;-74
2022/06/02 02:29:17;;;;;;;;;8.00;4.33;;;;;16.69;43.59;101281.63;5100961;27;45267;-72
2022/06/02 02:32:15;;;;;;;;;3.00;3.00;;;;;16.83;43.55;101306.03;5113248;27;45569;-74
2022/06/02 02:34:48;;;;;;;;;8.00;4.00;;;;;16.83;43.20;101309.66;5123444;27;45291;-71
2022/06/02 02:37:21;;;;;;;;;6.33;4.00;;;;;16.82;43.27;101325.84;5121862;27;45304;-73
2022/06/02 02:39:52;;;;;;;;;6.00;4.00;;;;;16.80;43.29;101315.03;5124732;27;45469;-73
2022/06/02 02:42:47;;;;;;;;;6.67;5.00;;;;;16.62;43.70;101295.97;5125774;27;45220;-72
2022/06/02 02:45:44;;;;;;;;;3.67;3.67;;;;;16.53;43.46;101265.31;5124347;27;45545;-75
2022/06/02 02:48:15;;;;;;;;;4.00;4.00;;;;;16.69;44.16;101308.63;5120054;27;46425;-71
2022/06/02 02:50:55;;;;;;;;;5.75;5.75;;;;;16.47;44.44;101281.41;5110324;27;45953;-73
2022/06/02 02:53:31;;;;;;;;;3.67;3.67;;;;;16.54;44.32;101299.47;5106550;27;45501;-74
2022/06/02 02:56:06;;;;;;;;;4.00;3.75;;;;;16.39;44.06;101289.41;5115612;27;45607;-73
2022/06/02 02:58:58;;;;;;;;;3.00;3.00;;;;;16.57;44.52;101320.19;5122174;27;45766;-74
2022/06/02 03:01:57;;;;;;;;;9.00;4.75;;;;;16.55;44.03;101311.19;5114783;27;45362;-74
2022/06/02 03:04:22;;;;;;;;;4.25;4.25;;;;;16.56;44.08;101318.38;5111937;27;45471;-73
2022/06/02 03:06:48;;;;;;;;;4.33;4.00;;;;;16.54;43.85;101312.94;5113599;27;45987;-75
2022/06/02 03:09:41;;;;;;;;;25.00;25.00;;;;;16.59;44.33;101322.00;5118290;27;46883;-72
2022/06/02 03:12:28;;;;;;;;;4.75;3.25;;;;;16.56;44.26;101315.66;5110248;27;45710;-73
2022/06/02 03:15:19;;;;;;;;;5.75;4.75;;;;;16.49;44.55;101311.09;5117892;27;45440;-74
2022/06/02 03:18:03;;;;;;;;;6.00;6.00;;;;;16.42;44.93;101307.44;5094287;27;45426;-73
2022/06/02 03:20:34;;;;;;;;;6.25;4.50;;;;;16.40;44.79;101302.03;5105733;27;46340;-73
2022/06/02 03:23:27;;;;;;;;;6.50;6.50;;;;;16.32;44.74;101289.34;5111744;27;45398;-72
2022/06/02 03:25:58;;;;;;;;;6.50;4.50;;;;;16.35;45.23;101311.84;5109857;27;45479;-73
2022/06/02 03:28:47;;;;;;;;;5.50;5.50;;;;;16.02;45.00;101270.13;5109515;27;45860;-74
2022/06/02 03:31:37;;;;;;;;;6.50;3.75;;;;;16.22;44.57;101312.59;5125941;27;45608;-75
2022/06/02 03:34:37;;;;;;;;;4.67;4.67;;;;;16.28;45.21;101312.66;5118519;27;45946;-73
2022/06/02 03:37:40;;;;;;;;;6.25;6.25;;;;;16.28;44.79;101317.16;5108574;27;45673;-71
2022/06/02 03:40:34;;;;;;;;;5.25;4.25;;;;;16.26;45.11;101330.59;5104504;27;45825;-71
2022/06/02 03:43:06;;;;;;;;;4.50;3.75;;;;;16.26;44.81;101336.00;5091165;27;46267;-76
2022/06/02 03:45:42;;;;;;;;;3.50;3.00;;;;;16.24;44.92;101331.50;5117825;27;45416;-72
2022/06/02 03:48:38;;;;;;;;;4.50;3.75;;;;;16.23;44.71;101329.66;5116636;27;45513;-74
2022/06/02 03:51:06;;;;;;;;;6.00;6.00;;;;;16.20;45.32;101335.91;5112925;27;45924;-74
2022/06/02 03:53:37;;;;;;;;;4.00;4.00;;;;;16.18;45.43;101335.00;5110853;27;45597;-73
2022/06/02 03:56:30;;;;;;;;;5.50;5.50;;;;;16.18;45.46;101337.69;5118207;27;45171;-74
2022/06/02 03:59:23;;;;;;;;;7.25;7.25;;;;;16.15;45.15;101319.72;5100080;27;45532;-74
2022/06/02 04:02:00;;;;;;;;;10.00;5.25;;;;;16.03;45.03;101293.47;5103807;27;45713;-74
2022/06/02 04:04:38;;;;;;;;;5.25;5.25;;;;;15.87;45.37;101260.94;5124885;27;45798;-75
2022/06/02 04:07:24;;;;;;;;;8.25;7.25;;;;;16.20;45.11;101317.03;5121686;27;45539;-73
2022/06/02 04:10:17;;;;;;;;;7.00;7.00;;;;;16.19;45.18;101332.31;5119619;27;45165;-72
2022/06/02 04:15:52;;;;;;;;;8.25;6.50;;;;;16.16;45.10;101343.06;5112698;27;45469;-72
2022/06/02 04:18:41;;;;;;;;;8.50;7.00;;;;;16.13;45.25;101344.81;5104372;27;45610;-74
2022/06/02 04:21:39;;;;;;;;;6.25;6.25;;;;;16.00;45.63;101317.72;5114175;27;45194;-73
2022/06/02 04:24:11;;;;;;;;;4.50;4.50;;;;;15.89;45.09;101300.50;5105518;27;45756;-71
2022/06/02 04:26:51;;;;;;;;;7.00;5.25;;;;;16.07;45.23;101339.34;5111933;27;45640;-72
2022/06/02 04:30:01;;;;;;;;;7.50;7.00;;;;;16.06;45.40;101342.94;5109492;27;45562;-72
2022/06/02 04:32:59;;;;;;;;;6.75;5.50;;;;;16.05;45.67;101350.09;5007951;28;45979;-72
2022/06/02 04:35:51;;;;;;;;;7.50;7.50;;;;;16.02;46.14;101347.41;5108695;27;45468;-74
2022/06/02 04:38:50;;;;;;;;;10.00;8.00;;;;;15.95;45.97;101354.47;5119221;27;46281;-75
2022/06/02 04:41:34;;;;;;;;;5.00;5.00;;;;;15.74;45.80;101321.78;5115630;27;46177;-73
2022/06/02 04:44:14;;;;;;;;;6.25;6.25;;;;;15.85;45.75;101330.97;5114352;27;45285;-75
2022/06/02 04:47:13;;;;;;;;;8.00;7.00;;;;;16.09;45.73;101357.34;5101658;27;45612;-73
2022/06/02 04:50:01;;;;;;;;;6.50;6.50;;;;;16.16;45.54;101361.03;5095361;27;46303;-73
2022/06/02 04:52:44;;;;;;;;;7.00;7.00;;;;;15.90;44.94;101312.19;5125847;27;45215;-75
2022/06/02 04:55:21;;;;;;;;;7.25;7.25;;;;;16.18;45.15;101364.66;5127551;27;45291;-74
2022/06/02 04:57:49;;;;;;;;;13.50;6.50;;;;;16.23;44.98;101351.25;5128067;27;45124;-74
2022/06/02 05:00:35;;;;;;;;;7.75;6.50;;;;;16.26;45.57;101357.56;5113077;27;45853;-72
2022/06/02 05:03:15;;;;;;;;;6.50;5.25;;;;;16.27;45.13;101358.47;5115057;27;45553;-72
2022/06/02 05:06:18;;;;;;;;;6.50;5.25;;;;;16.30;45.26;101356.75;5107279;27;45624;-72
2022/06/02 05:09:00;;;;;;;;;7.75;7.75;;;;;16.16;45.22;101326.88;5100686;27;45377;-74
2022/06/02 05:11:47;;;;;;;;;5.75;5.75;;;;;16.32;44.83;101352.25;5111833;27;47108;-74
2022/06/02 05:14:24;;;;;;;;;8.75;8.25;;;;;16.34;45.94;101355.88;5122240;27;45315;-74
2022/06/02 05:17:07;;;;;;;;;10.00;8.00;;;;;16.11;45.37;101295.38;5124740;27;45342;-72
2022/06/02 05:20:00;;;;;;;;;6.25;6.25;;;;;16.40;45.35;101355.06;5110946;27;45506;-74
2022/06/02 05:22:34;;;;;;;;;10.75;7.25;;;;;16.24;45.26;101335.09;5106335;27;46223;-72
2022/06/02 05:25:21;;;;;;;;;16.00;15.00;;;;;16.41;45.46;101346.06;5106040;27;45922;-73
2022/06/02 05:28:20;;;;;;;;;10.00;7.50;;;;;16.45;44.71;101363.19;5085720;27;45690;-74
2022/06/02 05:31:15;;;;;;;;;8.25;8.25;;;;;16.03;45.20;101274.59;5108747;27;45513;-72
2022/06/02 05:34:18;;;;;;;;;9.00;6.50;;;;;16.51;45.16;101353.38;5109399;27;46479;-72
2022/06/02 05:37:06;;;;;;;;;7.75;7.50;;;;;16.27;45.24;101321.66;5105542;27;45916;-71
2022/06/02 05:39:38;;;;;;;;;6.50;6.50;;;;;16.50;46.03;101354.28;5108634;27;46644;-73
2022/06/02 05:42:43;;;;;;;;;6.00;5.50;;;;;16.61;44.88;101373.28;5123600;27;45400;-73
2022/06/02 05:45:17;;;;;;;;;9.00;9.00;;;;;16.67;44.03;101364.38;5070470;27;45601;-73
2022/06/02 05:48:10;;;;;;;;;11.25;7.50;;;;;16.71;44.88;101361.72;5121661;27;45439;-73
2022/06/02 05:50:44;;;;;;;;;10.25;9.00;;;;;16.76;44.79;101359.03;5110322;27;45497;-73
2022/06/02 05:53:39;;;;;;;;;10.75;10.75;;;;;16.65;45.09;101317.59;5120047;27;45323;-71
2022/06/02 05:56:29;;;;;;;;;8.75;8.50;;;;;16.89;44.04;101352.91;5121040;27;45549;-74
2022/06/02 05:59:07;;;;;;;;;8.25;8.25;;;;;16.87;43.88;101357.41;5114422;27;45467;-73
2022/06/02 06:01:50;;;;;;;;;9.75;9.75;;;;;16.87;44.79;101359.22;5125806;27;45260;-73
2022/06/02 06:04:21;;;;;;;;;10.50;8.75;;;;;16.90;44.56;101356.53;5120504;27;45367;-74
2022/06/02 06:07:01;;;;;;;;;9.25;9.25;;;;;16.78;44.43;101333.00;5121938;27;46575;-74
2022/06/02 06:10:04;;;;;;;;;8.00;8.00;;;;;17.03;44.14;101352.19;5124744;27;45313;-73
2022/06/02 06:12:51;;;;;;;;;11.00;11.00;;;;;16.94;44.12;101326.91;5028826;28;45357;-74
2022/06/02 06:15:22;;;;;;;;;9.75;9.25;;;;;17.11;44.12;101367.53;5105054;27;45486;-74
2022/06/02 06:17:54;;;;;;;;;9.50;8.75;;;;;17.11;43.85;101367.53;5101545;27;45845;-73
2022/06/02 06:20:50;;;;;;;;;7.75;7.75;;;;;17.17;43.53;101366.69;5105146;27;45800;-73
2022/06/02 06:23:38;;;;;;;;;7.00;7.00;;;;;17.15;43.91;101367.59;5083570;27;46325;-73
2022/06/02 06:26:37;;;;;;;;;13.50;11.00;;;;;17.14;43.78;101358.56;5114600;27;45542;-72
2022/06/02 06:29:21;;;;;;;;;13.00;11.50;;;;;17.18;43.86;101363.09;5115701;27;46564;-74
2022/06/02 06:31:56;;;;;;;;;10.25;9.00;;;;;16.97;44.15;101325.13;5115018;27;45417;-74
2022/06/02 06:34:39;;;;;;;;;13.75;10.25;;;;;17.18;44.25;101359.50;5111693;27;46114;-73
2022/06/02 06:37:39;;;;;;;;;10.50;9.50;;;;;17.17;43.69;101360.38;5101973;27;45577;-73
2022/06/02 06:40:11;;;;;;;;;10.50;10.00;;;;;17.16;43.97;101355.88;5103903;27;46147;-75
2022/06/02 06:42:46;;;;;;;;;13.50;11.25;;;;;17.21;43.72;101359.50;5111443;27;45587;-74
2022/06/02 06:45:20;;;;;;;;;12.50;10.00;;;;;17.29;43.81;101355.09;5111300;27;45598;-74
2022/06/02 06:47:53;;;;;;;;;10.00;9.25;;;;;17.11;44.01;101312.66;5111369;27;45467;-74
2022/06/02 06:50:25;;;;;;;;;9.75;9.75;;;;;17.43;43.75;101348.00;5109661;27;45560;-76
2022/06/02 06:53:18;;;;;;;;;17.50;12.50;;;;;17.49;43.34;101352.56;5109048;27;45431;-74
2022/06/02 06:55:59;;;;;;;;;12.00;12.00;;;;;17.18;43.45;101297.41;5094624;27;45528;-74
2022/06/02 06:58:36;;;;;;;;;10.00;9.50;;;;;17.57;43.33;101350.81;5102072;27;45979;-72
2022/06/02 07:01:17;;;;;;;;;16.50;12.50;;;;;17.62;43.82;101356.25;5101758;27;47181;-72
2022/06/02 07:04:18;;;;;;;;;11.00;9.75;;;;;17.71;43.53;101353.63;5107452;27;45413;-74
2022/06/02 07:07:02;;;;;;;;;11.75;10.00;;;;;17.81;43.44;101366.28;5109202;27;45803;-74
2022/06/02 07:09:59;;;;;;;;;11.75;8.75;;;;;17.84;42.91;101352.78;5109020;27;45703;-74
2022/06/02 07:12:52;;;;;;;;;10.25;9.50;;;;;17.88;42.43;101360.97;5090388;27;48512;-73
2022/06/02 07:15:17;;;;;;;;;10.25;9.25;;;;;18.01;42.75;101360.13;5109058;27;45546;-74
2022/06/02 07:17:51;;;;;;;;;9.67;9.67;;;;;17.73;42.77;101303.16;5107437;27;45551;-74
2022/06/02 07:20:38;;;;;;;;;11.25;9.50;;;;;18.01;42.48;101342.09;5101119;27;46045;-73
2022/06/02 07:23:35;;;;;;;;;14.50;12.00;;;;;18.27;42.59;101370.19;5082100;27;47609;-73
2022/06/02 07:26:16;;;;;;;;;11.67;9.33;;;;;18.32;42.11;101372.00;5105754;27;46172;-73
2022/06/02 07:29:09;;;;;;;;;48.00;37.25;;;;;18.45;42.13;101366.66;5109285;27;46033;-72
2022/06/02 07:31:53;;;;;;;;;11.00;10.67;;;;;18.53;41.78;101365.78;5108536;27;45477;-73
2022/06/02 07:34:41;;;;;;;;;11.50;9.00;;;;;18.63;41.83;101368.50;5108142;27;46104;-73
2022/06/02 07:37:31;;;;;;;;;10.50;9.00;;;;;18.78;41.35;101363.16;5108627;27;45587;-73
2022/06/02 07:40:14;;;;;;;;;9.25;8.00;;;;;18.74;41.28;101328.84;5108205;27;45400;-72
2022/06/02 07:43:19;;;;;;;;;10.00;6.00;;;;;19.04;40.72;101338.88;5100235;27;46158;-71
2022/06/02 07:46:04;;;;;;;;;9.00;6.75;;;;;19.24;39.76;101319.00;5100891;27;45760;-72
2022/06/02 07:48:53;;;;;;;;;13.25;11.25;;;;;19.57;39.22;101334.34;5105457;27;45763;-73
2022/06/02 07:51:52;;;;;;;;;7.00;7.00;;;;;19.90;38.86;101356.91;5090719;27;45620;-73
2022/06/02 07:54:38;;;;;;;;;9.50;9.00;;;;;19.97;38.48;101361.38;5090027;27;45522;-73
2022/06/02 07:57:41;;;;;;;;;14.33;12.33;;;;;19.96;38.69;101359.56;5090127;27;46430;-72
2022/06/02 08:00:15;;;;;;;;;7.00;5.33;;;;;19.89;38.60;101353.25;5107655;27;45645;-73
2022/06/02 08:03:19;;;;;;;;;10.67;8.33;;;;;19.98;38.61;101355.06;5107110;27;45559;-72
2022/06/02 08:05:52;;;;;;;;;20.00;17.50;;;;;20.01;38.52;101346.00;5099883;27;45908;-72
2022/06/02 08:08:24;;;;;;;;;7.33;7.33;;;;;20.13;38.01;101351.41;5100448;27;46245;-72
2022/06/02 08:11:28;;;;;;;;;7.67;6.67;;;;;19.88;37.56;101313.50;5105038;27;45749;-72
2022/06/02 08:13:59;;;;;;;;;6.00;6.00;;;;;20.04;37.79;101316.16;5108504;27;45550;-72
2022/06/02 08:16:30;;;;;;;;;5.00;5.00;;;;;20.24;37.61;101341.41;5109033;27;45510;-73
2022/06/02 08:19:01;;;;;;;;;7.67;7.00;;;;;20.24;37.13;101333.28;5108233;27;45772;-72
2022/06/02 08:22:01;;;;;;;;;17.25;13.75;;;;;20.13;36.90;101288.09;5108603;27;45624;-73
2022/06/02 08:24:54;;;;;;;;;6.00;6.00;;;;;20.40;36.59;101319.63;5103223;27;45473;-71
2022/06/02 08:28:04;;;;;;;;;7.00;6.33;;;;;20.57;36.36;101335.81;5100823;27;45579;-73
2022/06/02 08:30:35;;;;;;;;;7.00;7.00;;;;;20.62;36.35;101333.97;5101458;27;46236;-73
2022/06/02 08:33:12;;;;;;;;;4.33;4.33;;;;;20.70;36.39;101331.25;5105105;27;45573;-72
2022/06/02 08:35:44;;;;;;;;;9.33;6.00;;;;;20.86;36.13;101332.06;5089904;27;45477;-72
2022/06/02 08:38:49;;;;;;;;;8.67;8.67;;;;;20.96;35.45;101322.94;5090008;27;45619;-73
2022/06/02 08:41:31;;;;;;;;;5.00;5.00;;;;;21.07;35.59;101314.69;5107686;27;45780;-74
2022/06/02 08:44:14;;;;;;;;;8.00;8.00;;;;;21.22;35.57;101311.84;5107434;27;45620;-72
2022/06/02 08:47:17;;;;;;;;;5.33;5.33;;;;;21.36;35.40;101314.44;5107560;27;45514;-73
2022/06/02 08:50:09;;;;;;;;;16.00;10.75;;;;;21.46;35.03;101310.72;5099211;27;45610;-72
2022/06/02 08:52:56;;;;;;;;;13.67;7.00;;;;;21.53;34.96;101301.63;5100342;27;46021;-72
2022/06/02 08:55:50;;;;;;;;;7.00;7.00;;;;;21.60;34.73;101307.03;5103156;27;45801;-74
2022/06/02 08:58:34;;;;;;;;;12.33;9.33;;;;;21.63;35.04;101304.25;5107393;27;45532;-71
2022/06/02 09:01:17;;;;;;;;;6.00;5.00;;;;;21.72;34.60;101305.03;5107914;27;45602;-73
2022/06/02 09:03:46;;;;;;;;;6.00;6.00;;;;;21.75;34.37;101304.13;5106485;27;45512;-72
2022/06/02 09:06:48;;;;;;;;;7.33;7.00;;;;;21.77;34.60;101302.28;5088431;27;46328;-73
2022/06/02 09:09:44;;;;;;;;;4.00;3.00;;;;;21.67;33.84;101306.91;5106524;27;45810;-74
2022/06/02 09:12:48;;;;;;;;;5.00;5.00;;;;;21.72;34.18;101301.44;5099445;27;45551;-75
2022/06/02 09:15:46;;;;;;;;;4.67;4.67;;;;;21.31;33.82;101232.03;5081358;27;48141;-76
2022/06/02 09:18:30;;;;;;;;;9.00;6.33;;;;;21.56;34.49;101295.25;5103542;27;45660;-74
2022/06/02 09:21:14;;;;;;;;;9.33;6.00;;;;;21.59;34.17;101278.00;5106913;27;45400;-76
2022/06/02 09:24:01;;;;;;;;;7.00;5.00;;;;;21.73;33.81;101292.38;5107486;27;45510;-77
2022/06/02 09:26:45;;;;;;;;;4.00;4.00;;;;;21.85;33.71;101294.03;5107090;27;45640;-75
2022/06/02 09:29:31;;;;;;;;;5.67;5.00;;;;;21.94;33.17;101293.91;5107919;27;45459;-76
2022/06/02 09:31:56;;;;;;;;;7.00;5.33;;;;;22.04;33.41;101301.06;5107705;27;45813;-76
2022/06/02 09:34:50;;;;;;;;;5.00;4.00;;;;;22.14;32.54;101303.66;5101040;27;45558;-76
2022/06/02 09:37:49;;;;;;;;;9.33;6.33;;;;;22.11;32.34;101312.78;5099509;27;47467;-75
2022/06/02 09:40:23;;;;;;;;;7.00;6.67;;;;;21.81;32.89;101265.97;5102245;27;45621;-76
2022/06/02 09:43:18;;;;;;;;;6.33;5.00;;;;;22.09;32.52;101288.31;5107691;27;45646;-74
2022/06/02 09:46:16;;;;;;;;;3.00;2.33;;;;;22.23;31.86;101293.56;5107711;27;45585;-77
2022/06/02 09:49:05;;;;;;;;;4.00;4.00;;;;;21.86;32.12;101235.97;5107907;27;46398;-75
2022/06/02 09:51:36;;;;;;;;;7.00;5.33;;;;;22.22;32.20;101302.66;5107022;27;46055;-76
2022/06/02 09:54:49;;;;;;;;;10.33;10.33;;;;;22.25;31.51;101302.59;5106948;27;45665;-78
2022/06/02 09:57:56;;;;;;;;;4.33;3.33;;;;;22.12;31.40;101286.44;4978581;28;45995;-73
2022/06/02 10:00:39;;;;;;;;;5.67;3.67;;;;;22.44;31.40;101300.56;5097162;27;48485;-75
2022/06/02 10:03:17;;;;;;;;;4.00;4.00;;;;;22.62;30.31;101307.56;5101729;27;45669;-75
2022/06/02 10:05:50;;;;;;;;;2.67;2.67;;;;;22.75;30.96;101307.38;5106307;27;45926;-74
2022/06/02 10:08:16;;;;;;;;;4.67;3.67;;;;;22.82;31.11;101300.94;5112869;27;45469;-76
2022/06/02 10:10:57;;;;;;;;;3.00;3.00;;;;;22.95;30.68;101297.09;5113060;27;46142;-76
2022/06/02 10:13:41;;;;;;;;;5.67;5.00;;;;;23.04;30.47;101290.56;5112560;27;45437;-75
2022/06/02 10:16:23;;;;;;;;;3.33;3.33;;;;;23.16;30.46;101287.69;5112174;27;45413;-73
2022/06/02 10:19:28;;;;;;;;;4.00;4.00;;;;;23.25;29.58;101280.28;5106356;27;45995;-76
2022/06/02 10:22:09;;;;;;;;;6.00;4.33;;;;;23.33;29.79;101273.75;5103077;27;46976;-72
2022/06/02 10:24:44;;;;;;;;;5.00;3.33;;;;;23.40;29.42;101274.53;5084547;27;45717;-77
2022/06/02 10:27:28;;;;;;;;;4.00;4.00;;;;;23.40;29.90;101279.09;5110477;27;45548;-77
2022/06/02 10:30:27;;;;;;;;;4.00;4.00;;;;;23.43;29.43;101260.84;5109776;27;45692;-75
2022/06/02 10:33:25;;;;;;;;;6.67;6.67;;;;;23.46;29.78;101265.31;5109151;27;46120;-76
2022/06/02 10:36:09;;;;;;;;;4.00;2.67;;;;;23.46;29.49;101268.06;5109934;27;45608;-75
2022/06/02 10:39:22;;;;;;;;;8.00;5.00;;;;;23.47;29.71;101261.69;5083575;27;45720;-74
2022/06/02 10:42:00;;;;;;;;;4.00;4.00;;;;;23.40;29.50;101260.91;5029471;27;45597;-73
2022/06/02 10:44:57;;;;;;;;;4.00;4.00;;;;;23.43;29.92;101260.84;5101930;27;46087;-75
2022/06/02 10:47:45;;;;;;;;;5.33;4.00;;;;;23.35;29.73;101258.25;5100930;27;45583;-73
2022/06/02 10:50:16;;;;;;;;;5.00;4.00;;;;;23.34;29.67;101261.91;5110305;27;45504;-75
2022/06/02 10:53:19;;;;;;;;;4.00;3.00;;;;;23.32;29.57;101251.97;5093489;27;45660;-73
2022/06/02 10:56:18;;;;;;;;;5.00;4.00;;;;;23.34;28.73;101258.28;5110062;27;46749;-74
2022/06/02 10:59:33;;;;;;;;;3.00;3.00;;;;;23.36;28.57;101257.34;5111022;27;45507;-72
2022/06/02 11:02:14;;;;;;;;;5.00;3.00;;;;;23.46;28.24;101248.97;5053349;27;45549;-74
2022/06/02 11:05:23;;;;;;;;;7.00;7.00;;;;;23.51;28.62;101245.25;5082922;27;45932;-73
2022/06/02 11:08:19;;;;;;;;;7.00;4.00;;;;;23.57;28.84;101237.88;5101022;27;46386;-73
2022/06/02 11:11:05;;;;;;;;;4.67;4.67;;;;;23.62;28.62;101245.00;5106066;27;45767;-73
2022/06/02 11:13:42;;;;;;;;;4.00;4.00;;;;;23.70;28.50;101237.56;5109679;27;45492;-75
2022/06/02 11:16:29;;;;;;;;;4.00;4.00;;;;;23.74;27.97;101231.13;5109159;27;45704;-75
2022/06/02 11:19:16;;;;;;;;;6.00;3.00;;;;;23.86;27.51;101229.13;5088750;27;46115;-73
2022/06/02 11:21:59;;;;;;;;;2.67;2.67;;;;;24.00;27.48;101229.69;5109070;27;45571;-74
2022/06/02 11:24:28;;;;;;;;;4.67;4.00;;;;;24.12;27.57;101235.81;5108569;27;45602;-74
2022/06/02 11:27:05;;;;;;;;;16.75;16.25;;;;;24.21;27.46;101235.63;5102710;27;45691;-74
2022/06/02 11:29:46;;;;;;;;;4.00;4.00;;;;;24.25;27.15;101229.16;5100672;27;46096;-73
2022/06/02 11:32:36;;;;;;;;;9.33;7.33;;;;;24.32;26.35;101219.00;5100915;27;45788;-76
2022/06/02 11:35:26;;;;;;;;;4.00;3.00;;;;;24.34;26.21;101220.78;5108269;27;45496;-75
2022/06/02 11:38:15;;;;;;;;;9.67;4.00;;;;;24.34;26.95;101220.78;5108960;27;45506;-75
2022/06/02 11:41:14;;;;;;;;;2.00;1.00;;;;;24.24;26.35;101189.16;5108756;27;46685;-76
2022/06/02 11:44:03;;;;;;;;;4.00;4.00;;;;;24.28;25.81;101208.13;5108317;27;45460;-74
2022/06/02 11:46:47;;;;;;;;;3.67;3.67;;;;;24.28;25.72;101204.50;5107580;27;45523;-76
2022/06/02 11:49:35;;;;;;;;;3.00;3.00;;;;;24.25;25.92;101202.78;5104113;27;45644;-75
2022/06/02 11:52:48;;;;;;;;;3.00;3.00;;;;;24.23;26.39;101198.28;5102527;27;46191;-76
2022/06/02 11:55:26;;;;;;;;;2.00;2.00;;;;;24.27;26.60;101209.09;5095645;27;45867;-74
2022/06/02 11:58:34;;;;;;;;;4.00;4.00;;;;;24.33;26.48;101215.34;5109261;27;45522;-76
2022/06/02 12:01:33;;;;;;;;;3.00;2.00;;;;;24.39;26.87;101196.97;5107890;27;45524;-73
2022/06/02 12:04:19;;;;;;;;;7.67;4.00;;;;;24.47;26.71;101192.22;5106932;27;45523;-76
2022/06/02 12:06:52;;;;;;;;;3.00;3.00;;;;;24.64;26.82;101186.38;5108056;27;45382;-75
2022/06/02 12:09:36;;;;;;;;;2.67;2.67;;;;;24.80;27.01;101183.25;5109395;27;45517;-76
2022/06/02 12:12:41;;;;;;;;;5.00;3.33;;;;;24.95;26.28;101177.38;5101819;27;45840;-74
2022/06/02 12:15:26;;;;;;;;;11.33;11.33;;;;;25.05;25.92;101179.88;5100762;27;45735;-75
2022/06/02 12:18:03;;;;;;;;;6.00;3.67;;;;;25.13;25.54;101180.56;5083299;27;45924;-72
2022/06/02 12:21:06;;;;;;;;;3.33;3.33;;;;;25.17;25.42;101171.34;5109287;27;45543;-76
2022/06/02 12:23:59;;;;;;;;;3.00;3.00;;;;;25.20;25.23;101168.53;5109260;27;45930;-74
2022/06/02 12:26:50;;;;;;;;;2.67;2.67;;;;;25.18;24.57;101171.28;5107444;27;45972;-74
2022/06/02 12:29:34;;;;;;;;;4.00;4.00;;;;;25.20;25.68;101160.31;5060933;27;45568;-74
2022/06/02 12:32:05;;;;;;;;;4.67;3.00;;;;;24.79;25.33;101078.50;5107834;27;45647;-74
2022/06/02 12:35:03;;;;;;;;;5.00;5.00;;;;;25.38;25.19;101142.53;5101057;27;45816;-75
2022/06/02 12:37:46;;;;;;;;;12.67;9.33;;;;;25.52;25.80;101143.03;5099126;27;45650;-73
2022/06/02 12:40:36;;;;;;;;;3.33;2.67;;;;;25.75;25.59;101144.16;5101281;27;45728;-71
2022/06/02 12:43:20;;;;;;;;;5.67;4.00;;;;;25.84;25.74;101145.72;5107885;27;45883;-74
2022/06/02 12:45:52;;;;;;;;;3.00;3.00;;;;;25.92;24.86;101140.91;5089164;27;45571;-74
2022/06/02 12:48:48;;;;;;;;;3.00;3.00;;;;;25.95;24.72;101132.56;5107470;27;46659;-75
2022/06/02 12:51:22;;;;;;;;;2.33;2.33;;;;;25.96;25.19;101144.47;5089163;27;45516;-74
2022/06/02 12:54:15;;;;;;;;;4.00;4.00;;;;;25.92;24.85;101127.22;5106567;27;45442;-75